This demonstration page uses our WeatherBlox Daily Observations layout. Learn more.

Hourly Observations for December 30, 2016

Temp ( °F °C ) Dew Point ( °F °C ) Humidity (%) Winds ( mph kmh ) Pressure ( in mb ) Visibility ( mi km ) Precip ( " mm )
12:54 am 00:54 Clear 23 -5 15 -9.4 72 72 S 3 6 30.32 1027 10 16.0934 0 0
1:54 am 01:54 Clear 22 -5.6 16 -8.9 78 78 Calm 30.31 1026 10 16.0934 0 0
2:54 am 02:54 Clear 22 -5.6 16 -8.9 78 78 S 3 6 30.3 1026 10 16.0934 0 0
3:54 am 03:54 Clear 22 -5.6 15 -9.4 75 75 SE 6 9 30.24 1024 10 16.0934 0 0
4:54 am 04:54 Clear 20 -6.7 15 -9.4 81 81 SSE 6 9 30.2 1023 10 16.0934 0 0
5:54 am 05:54 Clear 19 -7.2 14 -10 81 81 SSE 7 11 30.16 1021 10 16.0934 0 0
6:54 am 06:54 Clear 20 -6.7 14 -10 78 78 SSE 5 7 30.12 1020 10 16.0934 0 0
7:54 am 07:54 Sunny 20 -6.7 14 -10 78 78 S 5 7 30.07 1018 10 16.0934 0 0
8:54 am 08:54 Sunny 25 -3.9 19 -7.2 78 78 S 6 9 30.04 1017 10 16.0934 0 0
9:54 am 09:54 Sunny 34 1.1 19 -7.2 54 54 SSW 15 24 30 1016 10 16.0934 0 0
10:54 am 10:54 Sunny 37 2.8 20 -6.7 50 50 SSW 14 22 29.94 1014 10 16.0934 0 0
11:54 am 11:54 Sunny 42 5.6 21 -6.1 43 43 SSW 13 20 29.89 1012 10 16.0934 0 0
12:54 pm 12:54 Sunny 46 7.8 22 -5.6 38 38 S 12 19 29.83 1010 10 16.0934 0 0
1:54 pm 13:54 Sunny 49 9.4 23 -5 36 36 SSW 17 28 29.76 1008 10 16.0934 0 0
2:54 pm 14:54 Sunny 48 8.9 24 -4.4 39 39 SSW 14 22 29.72 1006 10 16.0934 0 0
3:54 pm 15:54 Sunny 49 9.4 25 -3.9 39 39 SSW 12 19 29.69 1006 10 16.0934 0 0
4:54 pm 16:54 Sunny 47 8.3 25 -3.9 42 42 SSW 15 24 29.69 1005 10 16.0934 0 0
5:54 pm 17:54 Clear 43 6.1 25 -3.9 49 49 SSW 8 13 29.67 1005 10 16.0934 0 0
6:54 pm 18:54 Clear 43 6.1 25 -3.9 49 49 SW 12 19 29.67 1005 10 16.0934 0 0
7:54 pm 19:54 Clear 45 7.2 24 -4.4 44 44 WSW 16 26 29.66 1004 10 16.0934 0 0
8:54 pm 20:54 Clear 43 6.1 25 -3.9 49 49 W 8 13 29.67 1005 10 16.0934 0 0
9:54 pm 21:54 Clear 41 5 26 -3.3 55 55 NW 10 17 29.67 1005 10 16.0934 0 0
10:54 pm 22:54 Clear 37 2.8 25 -3.9 62 62 N 14 22 29.7 1006 10 16.0934 0 0
11:54 pm 23:54 Clear 36 2.2 25 -3.9 64 64 NNW 13 20 29.7 1006 10 16.0934 0 0

Powered by AerisWeather